sensor_id;sensor_type;location;lat;lon;timestamp;P1;durP1;ratioP1;P2;durP2;ratioP2
4754;SDS011;2391;47.212;7.542;2023-08-30T00:00:44;1.67;;;1.50;;
4754;SDS011;2391;47.212;7.542;2023-08-30T00:03:11;2.57;;;1.90;;
4754;SDS011;2391;47.212;7.542;2023-08-30T00:05:41;2.37;;;2.27;;
4754;SDS011;2391;47.212;7.542;2023-08-30T00:08:07;2.10;;;2.00;;
4754;SDS011;2391;47.212;7.542;2023-08-30T00:10:34;2.10;;;2.00;;
4754;SDS011;2391;47.212;7.542;2023-08-30T00:13:00;7.13;;;2.53;;
4754;SDS011;2391;47.212;7.542;2023-08-30T00:15:26;2.10;;;2.00;;
4754;SDS011;2391;47.212;7.542;2023-08-30T00:17:51;4.23;;;3.47;;
4754;SDS011;2391;47.212;7.542;2023-08-30T00:20:17;3.13;;;2.93;;
4754;SDS011;2391;47.212;7.542;2023-08-30T00:22:44;5.77;;;3.43;;
4754;SDS011;2391;47.212;7.542;2023-08-30T00:25:10;3.67;;;3.13;;
4754;SDS011;2391;47.212;7.542;2023-08-30T00:27:35;3.90;;;3.07;;
4754;SDS011;2391;47.212;7.542;2023-08-30T00:30:01;3.33;;;3.13;;
4754;SDS011;2391;47.212;7.542;2023-08-30T00:32:27;4.03;;;3.00;;
4754;SDS011;2391;47.212;7.542;2023-08-30T00:34:53;2.97;;;2.77;;
4754;SDS011;2391;47.212;7.542;2023-08-30T00:37:19;3.40;;;3.20;;
4754;SDS011;2391;47.212;7.542;2023-08-30T00:39:44;4.40;;;3.20;;
4754;SDS011;2391;47.212;7.542;2023-08-30T00:42:10;3.30;;;3.07;;
4754;SDS011;2391;47.212;7.542;2023-08-30T00:44:36;5.00;;;4.03;;
4754;SDS011;2391;47.212;7.542;2023-08-30T00:47:02;5.00;;;3.73;;
4754;SDS011;2391;47.212;7.542;2023-08-30T00:49:31;3.07;;;2.87;;
4754;SDS011;2391;47.212;7.542;2023-08-30T00:52:01;3.10;;;2.87;;
4754;SDS011;2391;47.212;7.542;2023-08-30T00:54:29;3.53;;;2.90;;
4754;SDS011;2391;47.212;7.542;2023-08-30T00:56:55;3.53;;;3.23;;
4754;SDS011;2391;47.212;7.542;2023-08-30T00:59:23;2.40;;;2.30;;
4754;SDS011;2391;47.212;7.542;2023-08-30T01:01:50;7.53;;;2.70;;
4754;SDS011;2391;47.212;7.542;2023-08-30T01:04:16;8.80;;;3.07;;
4754;SDS011;2391;47.212;7.542;2023-08-30T01:06:43;2.80;;;2.50;;
4754;SDS011;2391;47.212;7.542;2023-08-30T01:09:09;2.57;;;2.40;;
4754;SDS011;2391;47.212;7.542;2023-08-30T01:14:09;3.83;;;2.40;;
4754;SDS011;2391;47.212;7.542;2023-08-30T01:16:37;2.40;;;2.30;;
4754;SDS011;2391;47.212;7.542;2023-08-30T01:21:50;9.10;;;2.67;;
4754;SDS011;2391;47.212;7.542;2023-08-30T01:24:23;2.23;;;2.13;;
4754;SDS011;2391;47.212;7.542;2023-08-30T01:29:40;2.80;;;2.60;;
4754;SDS011;2391;47.212;7.542;2023-08-30T01:32:05;2.07;;;1.97;;
4754;SDS011;2391;47.212;7.542;2023-08-30T01:34:32;2.67;;;2.50;;
4754;SDS011;2391;47.212;7.542;2023-08-30T01:37:00;2.40;;;2.20;;
4754;SDS011;2391;47.212;7.542;2023-08-30T01:39:27;2.30;;;2.10;;
4754;SDS011;2391;47.212;7.542;2023-08-30T01:41:54;2.40;;;2.30;;
4754;SDS011;2391;47.212;7.542;2023-08-30T01:44:22;2.90;;;2.30;;
4754;SDS011;2391;47.212;7.542;2023-08-30T01:46:48;2.47;;;2.27;;
4754;SDS011;2391;47.212;7.542;2023-08-30T01:49:14;2.27;;;2.10;;
4754;SDS011;2391;47.212;7.542;2023-08-30T01:51:40;2.47;;;2.37;;
4754;SDS011;2391;47.212;7.542;2023-08-30T01:54:06;2.30;;;2.10;;
4754;SDS011;2391;47.212;7.542;2023-08-30T01:56:34;2.50;;;1.90;;
4754;SDS011;2391;47.212;7.542;2023-08-30T01:59:00;5.17;;;2.80;;
4754;SDS011;2391;47.212;7.542;2023-08-30T02:01:26;2.77;;;2.60;;
4754;SDS011;2391;47.212;7.542;2023-08-30T02:03:51;2.30;;;2.20;;
4754;SDS011;2391;47.212;7.542;2023-08-30T02:06:20;2.23;;;2.13;;
4754;SDS011;2391;47.212;7.542;2023-08-30T02:11:23;2.03;;;1.93;;
4754;SDS011;2391;47.212;7.542;2023-08-30T02:13:52;2.30;;;2.20;;
4754;SDS011;2391;47.212;7.542;2023-08-30T02:16:19;2.20;;;2.10;;
4754;SDS011;2391;47.212;7.542;2023-08-30T02:18:48;2.50;;;1.73;;
4754;SDS011;2391;47.212;7.542;2023-08-30T02:21:15;2.23;;;2.10;;
4754;SDS011;2391;47.212;7.542;2023-08-30T02:23:40;9.93;;;2.40;;
4754;SDS011;2391;47.212;7.542;2023-08-30T02:26:06;2.10;;;2.00;;
4754;SDS011;2391;47.212;7.542;2023-08-30T02:28:32;2.43;;;2.33;;
4754;SDS011;2391;47.212;7.542;2023-08-30T02:30:58;2.40;;;2.30;;
4754;SDS011;2391;47.212;7.542;2023-08-30T02:33:23;3.50;;;2.70;;
4754;SDS011;2391;47.212;7.542;2023-08-30T02:35:49;3.33;;;2.80;;
4754;SDS011;2391;47.212;7.542;2023-08-30T02:38:15;2.60;;;2.50;;
4754;SDS011;2391;47.212;7.542;2023-08-30T02:40:41;3.23;;;2.93;;
4754;SDS011;2391;47.212;7.542;2023-08-30T02:43:07;5.20;;;4.80;;
4754;SDS011;2391;47.212;7.542;2023-08-30T02:45:32;3.67;;;3.37;;
4754;SDS011;2391;47.212;7.542;2023-08-30T02:47:58;4.43;;;4.13;;
4754;SDS011;2391;47.212;7.542;2023-08-30T02:50:24;4.60;;;3.83;;
4754;SDS011;2391;47.212;7.542;2023-08-30T02:52:50;3.77;;;3.57;;
4754;SDS011;2391;47.212;7.542;2023-08-30T02:55:17;4.90;;;4.40;;
4754;SDS011;2391;47.212;7.542;2023-08-30T02:57:42;4.60;;;4.30;;
4754;SDS011;2391;47.212;7.542;2023-08-30T03:00:09;7.23;;;3.80;;
4754;SDS011;2391;47.212;7.542;2023-08-30T03:02:35;5.63;;;4.60;;
4754;SDS011;2391;47.212;7.542;2023-08-30T03:05:00;5.87;;;4.63;;
4754;SDS011;2391;47.212;7.542;2023-08-30T03:07:28;8.30;;;3.87;;
4754;SDS011;2391;47.212;7.542;2023-08-30T03:09:54;5.30;;;4.57;;
4754;SDS011;2391;47.212;7.542;2023-08-30T03:12:20;7.90;;;5.97;;
4754;SDS011;2391;47.212;7.542;2023-08-30T03:14:46;8.07;;;6.80;;
4754;SDS011;2391;47.212;7.542;2023-08-30T03:17:12;11.20;;;8.10;;
4754;SDS011;2391;47.212;7.542;2023-08-30T03:19:38;9.27;;;8.27;;
4754;SDS011;2391;47.212;7.542;2023-08-30T03:22:04;8.90;;;8.00;;
4754;SDS011;2391;47.212;7.542;2023-08-30T03:24:29;8.53;;;7.60;;
4754;SDS011;2391;47.212;7.542;2023-08-30T03:26:56;8.57;;;7.60;;
4754;SDS011;2391;47.212;7.542;2023-08-30T03:29:21;8.83;;;7.93;;
4754;SDS011;2391;47.212;7.542;2023-08-30T03:31:47;10.37;;;7.83;;
4754;SDS011;2391;47.212;7.542;2023-08-30T03:34:13;8.50;;;7.67;;
4754;SDS011;2391;47.212;7.542;2023-08-30T03:36:40;10.00;;;8.77;;
4754;SDS011;2391;47.212;7.542;2023-08-30T03:39:08;10.33;;;9.13;;
4754;SDS011;2391;47.212;7.542;2023-08-30T03:41:33;12.90;;;9.30;;
4754;SDS011;2391;47.212;7.542;2023-08-30T03:43:59;12.00;;;9.17;;
4754;SDS011;2391;47.212;7.542;2023-08-30T03:46:25;12.03;;;9.27;;
4754;SDS011;2391;47.212;7.542;2023-08-30T03:48:50;10.83;;;9.13;;
4754;SDS011;2391;47.212;7.542;2023-08-30T03:51:17;9.23;;;7.40;;
4754;SDS011;2391;47.212;7.542;2023-08-30T03:53:43;8.70;;;7.13;;
4754;SDS011;2391;47.212;7.542;2023-08-30T03:56:09;7.23;;;6.50;;
4754;SDS011;2391;47.212;7.542;2023-08-30T03:58:34;8.93;;;7.00;;
4754;SDS011;2391;47.212;7.542;2023-08-30T04:01:00;18.30;;;8.33;;
4754;SDS011;2391;47.212;7.542;2023-08-30T04:03:26;13.33;;;7.93;;
4754;SDS011;2391;47.212;7.542;2023-08-30T04:05:56;11.50;;;8.47;;
4754;SDS011;2391;47.212;7.542;2023-08-30T04:08:22;11.87;;;8.23;;
4754;SDS011;2391;47.212;7.542;2023-08-30T04:10:48;15.70;;;9.50;;
4754;SDS011;2391;47.212;7.542;2023-08-30T04:13:17;11.43;;;9.27;;
4754;SDS011;2391;47.212;7.542;2023-08-30T04:15:43;12.90;;;9.10;;
4754;SDS011;2391;47.212;7.542;2023-08-30T04:18:09;15.60;;;10.40;;
4754;SDS011;2391;47.212;7.542;2023-08-30T04:20:35;16.70;;;11.83;;
4754;SDS011;2391;47.212;7.542;2023-08-30T04:23:01;20.87;;;12.20;;
4754;SDS011;2391;47.212;7.542;2023-08-30T04:25:28;17.00;;;11.90;;
4754;SDS011;2391;47.212;7.542;2023-08-30T04:27:54;19.30;;;12.60;;
4754;SDS011;2391;47.212;7.542;2023-08-30T04:30:20;20.80;;;13.00;;
4754;SDS011;2391;47.212;7.542;2023-08-30T04:32:46;16.70;;;12.33;;
4754;SDS011;2391;47.212;7.542;2023-08-30T04:35:12;16.63;;;11.93;;
4754;SDS011;2391;47.212;7.542;2023-08-30T04:37:38;14.63;;;10.97;;
4754;SDS011;2391;47.212;7.542;2023-08-30T04:40:05;13.70;;;9.97;;
4754;SDS011;2391;47.212;7.542;2023-08-30T04:42:33;13.00;;;9.93;;
4754;SDS011;2391;47.212;7.542;2023-08-30T04:44:59;12.23;;;9.47;;
4754;SDS011;2391;47.212;7.542;2023-08-30T04:47:26;14.60;;;10.13;;
4754;SDS011;2391;47.212;7.542;2023-08-30T04:49:53;12.50;;;10.40;;
4754;SDS011;2391;47.212;7.542;2023-08-30T04:52:19;12.97;;;9.83;;
4754;SDS011;2391;47.212;7.542;2023-08-30T04:54:45;12.40;;;9.00;;
4754;SDS011;2391;47.212;7.542;2023-08-30T04:57:11;11.50;;;8.97;;
4754;SDS011;2391;47.212;7.542;2023-08-30T04:59:44;10.17;;;8.57;;
4754;SDS011;2391;47.212;7.542;2023-08-30T05:02:07;9.80;;;8.47;;
4754;SDS011;2391;47.212;7.542;2023-08-30T05:04:33;11.70;;;8.77;;
4754;SDS011;2391;47.212;7.542;2023-08-30T05:06:59;11.97;;;9.80;;
4754;SDS011;2391;47.212;7.542;2023-08-30T05:09:25;11.50;;;9.43;;
4754;SDS011;2391;47.212;7.542;2023-08-30T05:11:52;10.53;;;9.03;;
4754;SDS011;2391;47.212;7.542;2023-08-30T05:14:19;10.90;;;9.17;;
4754;SDS011;2391;47.212;7.542;2023-08-30T05:16:45;12.40;;;9.93;;
4754;SDS011;2391;47.212;7.542;2023-08-30T05:19:11;12.70;;;9.30;;
4754;SDS011;2391;47.212;7.542;2023-08-30T05:21:37;13.23;;;10.20;;
4754;SDS011;2391;47.212;7.542;2023-08-30T05:24:03;16.00;;;9.67;;
4754;SDS011;2391;47.212;7.542;2023-08-30T05:26:31;12.93;;;9.57;;
4754;SDS011;2391;47.212;7.542;2023-08-30T05:28:57;10.90;;;8.90;;
4754;SDS011;2391;47.212;7.542;2023-08-30T05:31:23;12.27;;;10.53;;
4754;SDS011;2391;47.212;7.542;2023-08-30T05:33:48;12.00;;;9.20;;
4754;SDS011;2391;47.212;7.542;2023-08-30T05:36:14;11.50;;;9.83;;
4754;SDS011;2391;47.212;7.542;2023-08-30T05:38:40;10.83;;;9.67;;
4754;SDS011;2391;47.212;7.542;2023-08-30T05:41:07;10.13;;;8.33;;
4754;SDS011;2391;47.212;7.542;2023-08-30T05:43:33;12.23;;;9.53;;
4754;SDS011;2391;47.212;7.542;2023-08-30T05:45:59;14.80;;;9.90;;
4754;SDS011;2391;47.212;7.542;2023-08-30T05:48:26;12.03;;;9.53;;
4754;SDS011;2391;47.212;7.542;2023-08-30T05:50:52;12.20;;;9.70;;
4754;SDS011;2391;47.212;7.542;2023-08-30T05:53:18;11.27;;;8.97;;
4754;SDS011;2391;47.212;7.542;2023-08-30T05:55:43;10.50;;;8.30;;
4754;SDS011;2391;47.212;7.542;2023-08-30T05:58:09;10.60;;;9.10;;
4754;SDS011;2391;47.212;7.542;2023-08-30T06:00:35;13.10;;;8.80;;
4754;SDS011;2391;47.212;7.542;2023-08-30T06:03:01;19.63;;;10.27;;
4754;SDS011;2391;47.212;7.542;2023-08-30T06:05:28;15.87;;;12.07;;
4754;SDS011;2391;47.212;7.542;2023-08-30T06:07:53;13.60;;;9.60;;
4754;SDS011;2391;47.212;7.542;2023-08-30T06:10:19;14.90;;;8.97;;
4754;SDS011;2391;47.212;7.542;2023-08-30T06:12:45;12.90;;;9.60;;
4754;SDS011;2391;47.212;7.542;2023-08-30T06:15:11;15.33;;;9.90;;
4754;SDS011;2391;47.212;7.542;2023-08-30T06:17:36;11.23;;;9.73;;
4754;SDS011;2391;47.212;7.542;2023-08-30T06:20:02;15.90;;;12.07;;
4754;SDS011;2391;47.212;7.542;2023-08-30T06:22:30;16.80;;;11.67;;
4754;SDS011;2391;47.212;7.542;2023-08-30T06:24:55;15.57;;;11.60;;
4754;SDS011;2391;47.212;7.542;2023-08-30T06:27:22;14.07;;;10.67;;
4754;SDS011;2391;47.212;7.542;2023-08-30T06:29:49;14.27;;;10.00;;
4754;SDS011;2391;47.212;7.542;2023-08-30T06:32:16;12.47;;;9.77;;
4754;SDS011;2391;47.212;7.542;2023-08-30T06:34:42;11.50;;;9.37;;
4754;SDS011;2391;47.212;7.542;2023-08-30T06:37:08;24.43;;;9.60;;
4754;SDS011;2391;47.212;7.542;2023-08-30T06:39:34;11.10;;;9.80;;
4754;SDS011;2391;47.212;7.542;2023-08-30T06:42:04;9.30;;;8.20;;
4754;SDS011;2391;47.212;7.542;2023-08-30T06:44:30;8.80;;;7.87;;
4754;SDS011;2391;47.212;7.542;2023-08-30T06:46:56;9.43;;;8.43;;
4754;SDS011;2391;47.212;7.542;2023-08-30T06:49:22;10.07;;;8.10;;
4754;SDS011;2391;47.212;7.542;2023-08-30T06:51:49;10.90;;;8.37;;
4754;SDS011;2391;47.212;7.542;2023-08-30T06:54:15;12.60;;;8.67;;
4754;SDS011;2391;47.212;7.542;2023-08-30T06:56:40;8.27;;;7.47;;
4754;SDS011;2391;47.212;7.542;2023-08-30T06:59:06;9.23;;;7.30;;
4754;SDS011;2391;47.212;7.542;2023-08-30T07:01:32;9.77;;;7.10;;
4754;SDS011;2391;47.212;7.542;2023-08-30T07:03:58;10.93;;;7.50;;
4754;SDS011;2391;47.212;7.542;2023-08-30T07:06:23;10.10;;;7.87;;
4754;SDS011;2391;47.212;7.542;2023-08-30T07:08:49;10.27;;;7.60;;
4754;SDS011;2391;47.212;7.542;2023-08-30T07:11:15;7.30;;;6.60;;
4754;SDS011;2391;47.212;7.542;2023-08-30T07:13:41;8.83;;;7.60;;
4754;SDS011;2391;47.212;7.542;2023-08-30T07:16:06;7.90;;;6.63;;
4754;SDS011;2391;47.212;7.542;2023-08-30T07:18:32;9.80;;;7.27;;
4754;SDS011;2391;47.212;7.542;2023-08-30T07:20:58;7.00;;;6.30;;
4754;SDS011;2391;47.212;7.542;2023-08-30T07:23:24;6.97;;;6.37;;
4754;SDS011;2391;47.212;7.542;2023-08-30T07:25:51;6.93;;;6.20;;
4754;SDS011;2391;47.212;7.542;2023-08-30T07:28:17;8.63;;;7.27;;
4754;SDS011;2391;47.212;7.542;2023-08-30T07:30:42;8.63;;;7.50;;
4754;SDS011;2391;47.212;7.542;2023-08-30T07:33:08;7.53;;;6.40;;
4754;SDS011;2391;47.212;7.542;2023-08-30T07:35:34;7.40;;;6.70;;
4754;SDS011;2391;47.212;7.542;2023-08-30T07:38:00;10.57;;;6.67;;
4754;SDS011;2391;47.212;7.542;2023-08-30T07:40:25;7.03;;;6.33;;
4754;SDS011;2391;47.212;7.542;2023-08-30T07:42:53;5.50;;;5.00;;
4754;SDS011;2391;47.212;7.542;2023-08-30T07:45:19;7.03;;;5.40;;
4754;SDS011;2391;47.212;7.542;2023-08-30T07:47:45;5.60;;;5.10;;
4754;SDS011;2391;47.212;7.542;2023-08-30T07:50:10;5.60;;;5.03;;
4754;SDS011;2391;47.212;7.542;2023-08-30T07:52:36;4.80;;;4.40;;
4754;SDS011;2391;47.212;7.542;2023-08-30T07:55:02;5.00;;;4.60;;
4754;SDS011;2391;47.212;7.542;2023-08-30T07:57:28;5.23;;;4.77;;
4754;SDS011;2391;47.212;7.542;2023-08-30T07:59:54;4.43;;;4.13;;
4754;SDS011;2391;47.212;7.542;2023-08-30T08:02:20;5.20;;;4.70;;
4754;SDS011;2391;47.212;7.542;2023-08-30T08:04:45;4.00;;;3.80;;
4754;SDS011;2391;47.212;7.542;2023-08-30T08:07:11;3.80;;;3.50;;
4754;SDS011;2391;47.212;7.542;2023-08-30T08:09:37;3.80;;;3.50;;
4754;SDS011;2391;47.212;7.542;2023-08-30T08:12:04;4.03;;;3.63;;
4754;SDS011;2391;47.212;7.542;2023-08-30T08:14:30;3.33;;;3.13;;
4754;SDS011;2391;47.212;7.542;2023-08-30T08:16:55;3.20;;;3.00;;
4754;SDS011;2391;47.212;7.542;2023-08-30T08:19:21;2.87;;;2.67;;
4754;SDS011;2391;47.212;7.542;2023-08-30T08:21:47;2.83;;;2.63;;
4754;SDS011;2391;47.212;7.542;2023-08-30T08:24:13;2.30;;;2.07;;
4754;SDS011;2391;47.212;7.542;2023-08-30T08:26:39;2.50;;;2.40;;
4754;SDS011;2391;47.212;7.542;2023-08-30T08:29:04;2.73;;;2.63;;
4754;SDS011;2391;47.212;7.542;2023-08-30T08:31:30;3.00;;;2.80;;
4754;SDS011;2391;47.212;7.542;2023-08-30T08:34:14;4.07;;;2.83;;
4754;SDS011;2391;47.212;7.542;2023-08-30T08:36:31;3.27;;;2.10;;
4754;SDS011;2391;47.212;7.542;2023-08-30T08:38:57;2.60;;;2.40;;
4754;SDS011;2391;47.212;7.542;2023-08-30T08:41:23;2.53;;;2.33;;
4754;SDS011;2391;47.212;7.542;2023-08-30T08:43:53;2.90;;;2.70;;
4754;SDS011;2391;47.212;7.542;2023-08-30T08:46:19;2.10;;;2.00;;
4754;SDS011;2391;47.212;7.542;2023-08-30T08:48:47;3.60;;;2.40;;
4754;SDS011;2391;47.212;7.542;2023-08-30T08:51:16;3.43;;;2.67;;
4754;SDS011;2391;47.212;7.542;2023-08-30T08:53:42;2.10;;;2.00;;
4754;SDS011;2391;47.212;7.542;2023-08-30T08:56:09;3.10;;;2.90;;
4754;SDS011;2391;47.212;7.542;2023-08-30T08:58:36;2.50;;;2.30;;
4754;SDS011;2391;47.212;7.542;2023-08-30T09:01:05;4.30;;;2.90;;
4754;SDS011;2391;47.212;7.542;2023-08-30T09:03:32;2.60;;;2.40;;
4754;SDS011;2391;47.212;7.542;2023-08-30T09:06:00;2.70;;;2.47;;
4754;SDS011;2391;47.212;7.542;2023-08-30T09:08:26;2.47;;;2.27;;
4754;SDS011;2391;47.212;7.542;2023-08-30T09:10:52;3.33;;;2.33;;
4754;SDS011;2391;47.212;7.542;2023-08-30T09:13:17;2.73;;;2.53;;
4754;SDS011;2391;47.212;7.542;2023-08-30T09:15:45;3.20;;;2.87;;
4754;SDS011;2391;47.212;7.542;2023-08-30T09:18:18;2.87;;;2.67;;
4754;SDS011;2391;47.212;7.542;2023-08-30T09:20:42;2.80;;;2.60;;
4754;SDS011;2391;47.212;7.542;2023-08-30T09:23:20;3.00;;;2.70;;
4754;SDS011;2391;47.212;7.542;2023-08-30T09:25:47;2.97;;;2.77;;
4754;SDS011;2391;47.212;7.542;2023-08-30T09:28:15;2.33;;;2.20;;
4754;SDS011;2391;47.212;7.542;2023-08-30T09:30:40;2.70;;;2.50;;
4754;SDS011;2391;47.212;7.542;2023-08-30T09:33:06;2.40;;;2.30;;
4754;SDS011;2391;47.212;7.542;2023-08-30T09:35:32;2.17;;;2.07;;
4754;SDS011;2391;47.212;7.542;2023-08-30T09:37:57;2.70;;;2.10;;
4754;SDS011;2391;47.212;7.542;2023-08-30T09:40:23;2.73;;;2.33;;
4754;SDS011;2391;47.212;7.542;2023-08-30T09:42:49;2.30;;;2.17;;
4754;SDS011;2391;47.212;7.542;2023-08-30T09:45:18;2.17;;;1.97;;
4754;SDS011;2391;47.212;7.542;2023-08-30T09:47:46;2.00;;;1.83;;
4754;SDS011;2391;47.212;7.542;2023-08-30T09:50:18;1.87;;;1.77;;
4754;SDS011;2391;47.212;7.542;2023-08-30T09:52:48;4.30;;;1.50;;
4754;SDS011;2391;47.212;7.542;2023-08-30T09:55:15;6.00;;;2.10;;
4754;SDS011;2391;47.212;7.542;2023-08-30T09:57:44;2.50;;;2.30;;
4754;SDS011;2391;47.212;7.542;2023-08-30T10:00:10;5.57;;;2.50;;
4754;SDS011;2391;47.212;7.542;2023-08-30T10:02:40;4.07;;;1.43;;
4754;SDS011;2391;47.212;7.542;2023-08-30T10:05:12;1.70;;;1.60;;
4754;SDS011;2391;47.212;7.542;2023-08-30T10:07:38;5.13;;;1.80;;
4754;SDS011;2391;47.212;7.542;2023-08-30T10:10:05;1.80;;;1.70;;
4754;SDS011;2391;47.212;7.542;2023-08-30T10:12:34;3.43;;;1.60;;
4754;SDS011;2391;47.212;7.542;2023-08-30T10:15:00;2.27;;;1.57;;
4754;SDS011;2391;47.212;7.542;2023-08-30T10:17:27;2.30;;;1.73;;
4754;SDS011;2391;47.212;7.542;2023-08-30T10:19:56;1.93;;;1.70;;
4754;SDS011;2391;47.212;7.542;2023-08-30T10:22:22;1.90;;;1.80;;
4754;SDS011;2391;47.212;7.542;2023-08-30T10:25:04;1.53;;;1.43;;
4754;SDS011;2391;47.212;7.542;2023-08-30T10:27:30;5.00;;;1.53;;
4754;SDS011;2391;47.212;7.542;2023-08-30T10:29:59;1.70;;;1.60;;
4754;SDS011;2391;47.212;7.542;2023-08-30T10:32:30;2.00;;;1.90;;
4754;SDS011;2391;47.212;7.542;2023-08-30T10:35:00;1.70;;;1.60;;
4754;SDS011;2391;47.212;7.542;2023-08-30T10:37:26;1.93;;;1.83;;
4754;SDS011;2391;47.212;7.542;2023-08-30T10:39:53;1.70;;;1.60;;
4754;SDS011;2391;47.212;7.542;2023-08-30T10:42:23;1.80;;;1.70;;
4754;SDS011;2391;47.212;7.542;2023-08-30T10:44:50;2.80;;;1.83;;
4754;SDS011;2391;47.212;7.542;2023-08-30T10:47:23;1.60;;;1.50;;
4754;SDS011;2391;47.212;7.542;2023-08-30T10:49:57;1.67;;;1.37;;
4754;SDS011;2391;47.212;7.542;2023-08-30T10:52:30;1.60;;;1.50;;
4754;SDS011;2391;47.212;7.542;2023-08-30T10:57:43;1.90;;;1.80;;
4754;SDS011;2391;47.212;7.542;2023-08-30T11:02:47;1.60;;;1.50;;
4754;SDS011;2391;47.212;7.542;2023-08-30T11:05:21;2.70;;;1.77;;
4754;SDS011;2391;47.212;7.542;2023-08-30T11:07:52;2.10;;;2.00;;
4754;SDS011;2391;47.212;7.542;2023-08-30T11:10:18;2.43;;;2.23;;
4754;SDS011;2391;47.212;7.542;2023-08-30T11:12:45;2.37;;;1.80;;
4754;SDS011;2391;47.212;7.542;2023-08-30T11:15:12;1.70;;;1.60;;
4754;SDS011;2391;47.212;7.542;2023-08-30T11:17:39;2.10;;;1.97;;
4754;SDS011;2391;47.212;7.542;2023-08-30T11:20:07;2.60;;;2.40;;
4754;SDS011;2391;47.212;7.542;2023-08-30T11:22:35;2.57;;;2.37;;
4754;SDS011;2391;47.212;7.542;2023-08-30T11:25:03;2.37;;;2.07;;
4754;SDS011;2391;47.212;7.542;2023-08-30T11:27:29;2.13;;;2.03;;
4754;SDS011;2391;47.212;7.542;2023-08-30T11:29:58;1.67;;;1.57;;
4754;SDS011;2391;47.212;7.542;2023-08-30T11:32:27;2.17;;;2.07;;
4754;SDS011;2391;47.212;7.542;2023-08-30T11:34:56;3.10;;;2.80;;
4754;SDS011;2391;47.212;7.542;2023-08-30T11:37:23;2.00;;;1.90;;
4754;SDS011;2391;47.212;7.542;2023-08-30T11:39:51;1.90;;;1.80;;
4754;SDS011;2391;47.212;7.542;2023-08-30T11:42:18;3.20;;;1.67;;
4754;SDS011;2391;47.212;7.542;2023-08-30T11:44:45;2.40;;;2.03;;
4754;SDS011;2391;47.212;7.542;2023-08-30T11:47:11;1.93;;;1.83;;
4754;SDS011;2391;47.212;7.542;2023-08-30T11:49:38;5.53;;;2.37;;
4754;SDS011;2391;47.212;7.542;2023-08-30T11:52:05;1.97;;;1.87;;
4754;SDS011;2391;47.212;7.542;2023-08-30T11:54:31;2.73;;;2.27;;
4754;SDS011;2391;47.212;7.542;2023-08-30T11:56:57;2.23;;;2.00;;
4754;SDS011;2391;47.212;7.542;2023-08-30T11:59:23;2.53;;;1.80;;
4754;SDS011;2391;47.212;7.542;2023-08-30T12:01:49;5.73;;;2.00;;
4754;SDS011;2391;47.212;7.542;2023-08-30T12:04:14;1.33;;;1.30;;
4754;SDS011;2391;47.212;7.542;2023-08-30T12:06:40;2.17;;;1.10;;
4754;SDS011;2391;47.212;7.542;2023-08-30T12:09:11;2.07;;;1.50;;
4754;SDS011;2391;47.212;7.542;2023-08-30T12:11:38;1.50;;;1.40;;
4754;SDS011;2391;47.212;7.542;2023-08-30T12:14:03;3.37;;;1.50;;
4754;SDS011;2391;47.212;7.542;2023-08-30T12:16:30;1.40;;;1.30;;
4754;SDS011;2391;47.212;7.542;2023-08-30T12:19:06;1.70;;;1.60;;
4754;SDS011;2391;47.212;7.542;2023-08-30T12:21:41;2.00;;;1.60;;
4754;SDS011;2391;47.212;7.542;2023-08-30T12:24:09;6.00;;;1.30;;
4754;SDS011;2391;47.212;7.542;2023-08-30T12:26:35;1.80;;;1.70;;
4754;SDS011;2391;47.212;7.542;2023-08-30T12:29:04;1.63;;;1.30;;
4754;SDS011;2391;47.212;7.542;2023-08-30T12:31:32;1.30;;;1.20;;
4754;SDS011;2391;47.212;7.542;2023-08-30T12:33:58;1.20;;;1.20;;
4754;SDS011;2391;47.212;7.542;2023-08-30T12:36:24;1.43;;;1.10;;
4754;SDS011;2391;47.212;7.542;2023-08-30T12:38:50;1.67;;;1.47;;
4754;SDS011;2391;47.212;7.542;2023-08-30T12:41:16;2.20;;;1.20;;
4754;SDS011;2391;47.212;7.542;2023-08-30T12:43:42;1.73;;;1.27;;
4754;SDS011;2391;47.212;7.542;2023-08-30T12:46:07;1.20;;;1.10;;
4754;SDS011;2391;47.212;7.542;2023-08-30T12:48:33;1.30;;;1.20;;
4754;SDS011;2391;47.212;7.542;2023-08-30T12:50:59;2.90;;;1.73;;
4754;SDS011;2391;47.212;7.542;2023-08-30T12:53:24;1.70;;;1.60;;
4754;SDS011;2391;47.212;7.542;2023-08-30T12:55:50;1.20;;;1.20;;
4754;SDS011;2391;47.212;7.542;2023-08-30T12:58:16;1.50;;;1.20;;
4754;SDS011;2391;47.212;7.542;2023-08-30T13:00:42;1.17;;;1.10;;
4754;SDS011;2391;47.212;7.542;2023-08-30T13:03:07;1.30;;;1.20;;
4754;SDS011;2391;47.212;7.542;2023-08-30T13:05:33;2.30;;;1.23;;
4754;SDS011;2391;47.212;7.542;2023-08-30T13:07:59;1.10;;;1.07;;
4754;SDS011;2391;47.212;7.542;2023-08-30T13:10:25;4.93;;;1.30;;
4754;SDS011;2391;47.212;7.542;2023-08-30T13:12:52;1.17;;;1.10;;
4754;SDS011;2391;47.212;7.542;2023-08-30T13:15:18;3.33;;;1.30;;
4754;SDS011;2391;47.212;7.542;2023-08-30T13:17:44;1.40;;;1.30;;
4754;SDS011;2391;47.212;7.542;2023-08-30T13:20:09;4.60;;;1.37;;
4754;SDS011;2391;47.212;7.542;2023-08-30T13:22:36;2.10;;;1.50;;
4754;SDS011;2391;47.212;7.542;2023-08-30T13:25:03;1.67;;;1.40;;
4754;SDS011;2391;47.212;7.542;2023-08-30T13:27:29;1.50;;;1.40;;
4754;SDS011;2391;47.212;7.542;2023-08-30T13:29:55;1.07;;;1.07;;
4754;SDS011;2391;47.212;7.542;2023-08-30T13:32:21;3.23;;;1.10;;
4754;SDS011;2391;47.212;7.542;2023-08-30T13:34:47;1.13;;;1.03;;
4754;SDS011;2391;47.212;7.542;2023-08-30T13:37:13;1.10;;;1.00;;
4754;SDS011;2391;47.212;7.542;2023-08-30T13:39:43;4.93;;;1.30;;
4754;SDS011;2391;47.212;7.542;2023-08-30T13:42:06;1.47;;;1.00;;
4754;SDS011;2391;47.212;7.542;2023-08-30T13:44:32;1.07;;;0.90;;
4754;SDS011;2391;47.212;7.542;2023-08-30T13:47:00;1.63;;;0.97;;
4754;SDS011;2391;47.212;7.542;2023-08-30T13:49:26;2.00;;;1.10;;
4754;SDS011;2391;47.212;7.542;2023-08-30T13:51:52;5.43;;;1.13;;
4754;SDS011;2391;47.212;7.542;2023-08-30T13:54:19;2.60;;;1.20;;
4754;SDS011;2391;47.212;7.542;2023-08-30T13:56:44;1.10;;;1.00;;
4754;SDS011;2391;47.212;7.542;2023-08-30T13:59:10;2.17;;;1.10;;
4754;SDS011;2391;47.212;7.542;2023-08-30T14:01:36;5.33;;;1.27;;
4754;SDS011;2391;47.212;7.542;2023-08-30T14:04:02;2.23;;;1.00;;
4754;SDS011;2391;47.212;7.542;2023-08-30T14:06:30;2.40;;;0.90;;
4754;SDS011;2391;47.212;7.542;2023-08-30T14:08:57;1.20;;;1.03;;
4754;SDS011;2391;47.212;7.542;2023-08-30T14:11:23;1.50;;;0.90;;
4754;SDS011;2391;47.212;7.542;2023-08-30T14:13:49;1.67;;;1.10;;
4754;SDS011;2391;47.212;7.542;2023-08-30T14:16:15;1.27;;;1.17;;
4754;SDS011;2391;47.212;7.542;2023-08-30T14:18:41;1.20;;;1.10;;
4754;SDS011;2391;47.212;7.542;2023-08-30T14:21:08;1.23;;;1.13;;
4754;SDS011;2391;47.212;7.542;2023-08-30T14:23:34;1.30;;;1.20;;
4754;SDS011;2391;47.212;7.542;2023-08-30T14:26:02;1.60;;;1.07;;
4754;SDS011;2391;47.212;7.542;2023-08-30T14:28:38;1.20;;;1.20;;
4754;SDS011;2391;47.212;7.542;2023-08-30T14:31:08;1.23;;;1.10;;
4754;SDS011;2391;47.212;7.542;2023-08-30T14:33:35;2.73;;;1.10;;
4754;SDS011;2391;47.212;7.542;2023-08-30T14:36:02;2.90;;;1.37;;
4754;SDS011;2391;47.212;7.542;2023-08-30T14:38:29;1.30;;;1.20;;
4754;SDS011;2391;47.212;7.542;2023-08-30T14:40:58;1.40;;;1.30;;
4754;SDS011;2391;47.212;7.542;2023-08-30T14:43:25;1.37;;;1.10;;
4754;SDS011;2391;47.212;7.542;2023-08-30T14:45:51;1.00;;;1.00;;
4754;SDS011;2391;47.212;7.542;2023-08-30T14:48:16;3.13;;;1.33;;
4754;SDS011;2391;47.212;7.542;2023-08-30T14:50:42;5.50;;;1.10;;
4754;SDS011;2391;47.212;7.542;2023-08-30T14:53:08;2.43;;;1.00;;
4754;SDS011;2391;47.212;7.542;2023-08-30T14:55:34;1.13;;;1.07;;
4754;SDS011;2391;47.212;7.542;2023-08-30T14:58:00;2.13;;;1.10;;
4754;SDS011;2391;47.212;7.542;2023-08-30T15:00:25;4.23;;;1.67;;
4754;SDS011;2391;47.212;7.542;2023-08-30T15:02:51;2.40;;;1.10;;
4754;SDS011;2391;47.212;7.542;2023-08-30T15:05:17;0.90;;;0.90;;
4754;SDS011;2391;47.212;7.542;2023-08-30T15:07:43;1.47;;;1.10;;
4754;SDS011;2391;47.212;7.542;2023-08-30T15:10:09;1.00;;;0.83;;
4754;SDS011;2391;47.212;7.542;2023-08-30T15:12:37;1.20;;;1.10;;
4754;SDS011;2391;47.212;7.542;2023-08-30T15:15:03;1.37;;;1.13;;
4754;SDS011;2391;47.212;7.542;2023-08-30T15:17:29;1.43;;;1.20;;
4754;SDS011;2391;47.212;7.542;2023-08-30T15:19:55;1.10;;;1.00;;
4754;SDS011;2391;47.212;7.542;2023-08-30T15:22:20;0.97;;;0.97;;
4754;SDS011;2391;47.212;7.542;2023-08-30T15:24:46;0.90;;;0.90;;